Time;durP1;ratioP1;P1;durP2;ratioP2;P2;SDS_P1;SDS_P2;PMS_P1;PMS_P2;Temp;Humidity;BMP_temperature;BMP_pressure;BME280_temperature;BME280_humidity;BME280_pressure;Samples;Min_cycle;Max_cycle;Signal;HPM_P1;HPM_P2
2023/04/12 00:00:45;;;;;;;6.67;4.67;;;;;;;12.77;100.00;100478.19;2519445;23;20162;-68
2023/04/12 00:01:45;;;;;;;8.03;4.60;;;;;;;12.77;100.00;100472.63;2519865;23;20633;-68
2023/04/12 00:02:46;;;;;;;4.93;4.40;;;;;;;12.71;100.00;100472.41;2532988;23;20150;-68
2023/04/12 00:03:49;;;;;;;5.30;4.40;;;;;;;12.74;100.00;100477.09;2532332;23;20182;-68
2023/04/12 00:04:54;;;;;;;5.87;4.30;;;;;;;12.73;100.00;100471.97;2533044;23;20151;-68
2023/04/12 00:05:55;;;;;;;5.20;4.57;;;;;;;12.74;100.00;100473.53;2532706;23;20368;-68
2023/04/12 00:06:55;;;;;;;6.20;4.47;;;;;;;11.79;100.00;100335.09;2532857;23;20382;-68
2023/04/12 00:07:59;;;;;;;6.07;5.10;;;;;;;12.66;100.00;100480.56;2532178;23;20180;-68
2023/04/12 00:09:01;;;;;;;5.47;4.80;;;;;;;12.62;100.00;100479.91;2531687;23;20154;-68
2023/04/12 00:10:02;;;;;;;5.73;4.50;;;;;;;12.60;100.00;100483.13;2532231;23;20379;-68
2023/04/12 00:11:02;;;;;;;6.53;4.60;;;;;;;12.51;100.00;100485.81;2532565;23;20382;-68
2023/04/12 00:12:03;;;;;;;5.70;4.47;;;;;;;12.53;100.00;100488.94;2532545;23;20925;-68
2023/04/12 00:13:04;;;;;;;5.17;4.50;;;;;;;12.41;100.00;100459.16;2532798;23;20619;-68
2023/04/12 00:14:04;;;;;;;5.47;4.83;;;;;;;12.47;100.00;100487.97;2532394;23;20158;-68
2023/04/12 00:15:05;;;;;;;6.43;4.27;;;;;;;12.47;100.00;100482.41;2533097;23;20163;-68
2023/04/12 00:16:06;;;;;;;5.83;4.87;;;;;;;12.39;100.00;100471.94;2532494;23;20214;-68
2023/04/12 00:17:06;;;;;;;7.30;5.00;;;;;;;12.53;100.00;100493.72;2532917;23;20382;-68
2023/04/12 00:18:07;;;;;;;5.70;5.10;;;;;;;12.21;100.00;100441.22;2532403;23;20146;-68
2023/04/12 00:19:07;;;;;;;5.90;4.90;;;;;;;12.40;100.00;100477.06;2531458;23;20574;-68
2023/04/12 00:20:11;;;;;;;5.70;4.87;;;;;;;12.45;100.00;100481.28;2532624;23;20181;-68
2023/04/12 00:21:12;;;;;;;6.40;4.80;;;;;;;12.49;100.00;100485.50;2532261;23;20672;-68
2023/04/12 00:22:12;;;;;;;6.60;4.67;;;;;;;12.45;100.00;100490.41;2532609;23;20765;-68
2023/04/12 00:23:13;;;;;;;5.63;4.83;;;;;;;12.45;100.00;100484.84;2532753;23;20593;-68
2023/04/12 00:24:13;;;;;;;6.63;5.30;;;;;;;12.31;100.00;100470.66;2532409;23;20237;-68
2023/04/12 00:25:13;;;;;;;5.97;5.00;;;;;;;12.35;100.00;100472.06;2532715;23;20161;-68
2023/04/12 00:26:15;;;;;;;6.43;5.27;;;;;;;12.38;100.00;100476.75;2532536;23;20562;-68
2023/04/12 00:27:15;;;;;;;5.70;5.10;;;;;;;12.39;100.00;100478.28;2532703;23;20287;-68
2023/04/12 00:28:15;;;;;;;6.53;5.20;;;;;;;12.41;100.00;100478.59;2532556;23;20485;-68
2023/04/12 00:29:16;;;;;;;6.80;5.07;;;;;;;12.18;100.00;100444.88;2531196;23;20460;-68
2023/04/12 00:30:16;;;;;;;8.83;5.37;;;;;;;11.99;100.00;100435.56;2532571;23;20154;-68
2023/04/12 00:31:17;;;;;;;6.63;5.13;;;;;;;12.33;100.00;100471.75;2532250;23;20154;-68
2023/04/12 00:32:17;;;;;;;7.13;5.00;;;;;;;12.30;100.00;100489.31;2532555;23;20153;-68
2023/04/12 00:33:18;;;;;;;6.50;5.17;;;;;;;12.26;100.00;100477.56;2532817;23;20182;-68
2023/04/12 00:34:18;;;;;;;7.50;5.30;;;;;;;11.88;100.00;100407.38;2532313;23;20150;-68
2023/04/12 00:35:18;;;;;;;6.57;5.53;;;;;;;12.34;100.00;100478.84;2532940;23;20216;-68
2023/04/12 00:36:20;;;;;;;6.00;4.80;;;;;;;12.25;100.00;100472.44;2532694;23;20155;-68
2023/04/12 00:37:20;;;;;;;6.33;4.43;;;;;;;12.29;100.00;100479.41;2532980;23;20233;-68
2023/04/12 00:38:20;;;;;;;6.40;5.00;;;;;;;12.34;100.00;100473.31;2532546;23;20394;-68
2023/04/12 00:39:21;;;;;;;6.33;4.97;;;;;;;12.36;100.00;100481.97;2531350;23;20162;-68
2023/04/12 00:40:22;;;;;;;5.93;4.93;;;;;;;12.41;100.00;100478.59;2532424;23;20150;-68
2023/04/12 00:41:23;;;;;;;6.10;4.83;;;;;;;12.34;100.00;100461.44;2532058;23;20158;-68
2023/04/12 00:42:23;;;;;;;8.00;5.03;;;;;;;12.03;100.00;100419.56;2532208;23;20597;-68
2023/04/12 00:43:26;;;;;;;6.33;5.30;;;;;;;12.43;100.00;100469.84;2532032;23;20738;-68
2023/04/12 00:44:26;;;;;;;5.50;4.90;;;;;;;12.40;100.00;100462.41;2532666;23;20157;-68
2023/04/12 00:45:27;;;;;;;6.63;5.03;;;;;;;12.46;100.00;100471.72;2532702;23;20386;-68
2023/04/12 00:46:28;;;;;;;5.73;4.93;;;;;;;12.43;100.00;100473.41;2519621;23;20678;-68
2023/04/12 00:47:29;;;;;;;5.70;4.87;;;;;;;12.41;100.00;100472.28;2519672;23;20151;-68
2023/04/12 00:48:30;;;;;;;6.07;5.10;;;;;;;12.49;100.00;100476.38;2519358;23;20183;-68
2023/04/12 00:49:32;;;;;;;5.63;4.73;;;;;;;12.17;100.00;100421.88;2518602;23;20182;-68
2023/04/12 00:50:36;;;;;;;8.03;5.03;;;;;;;12.54;100.00;100471.03;2532256;23;20374;-68
2023/04/12 00:51:36;;;;;;;5.07;4.57;;;;;;;12.41;100.00;100444.50;2532505;23;20394;-68
2023/04/12 00:52:38;;;;;;;5.87;5.27;;;;;;;12.60;100.00;100474.03;2532729;23;20374;-68
2023/04/12 00:53:40;;;;;;;6.77;4.57;;;;;;;12.62;100.00;100474.34;2532306;23;20634;-68
2023/04/12 00:54:42;;;;;;;6.97;5.30;;;;;;;12.70;100.00;100470.88;2532872;23;20813;-68
2023/04/12 00:55:44;;;;;;;8.17;5.57;;;;;;;12.71;100.00;100472.41;2532488;23;20383;-68
2023/04/12 00:56:46;;;;;;;7.70;5.30;;;;;;;12.74;100.00;100467.97;2532764;23;20698;-68
2023/04/12 00:57:46;;;;;;;6.07;5.20;;;;;;;12.76;100.00;100473.88;2532380;23;20389;-68
2023/04/12 00:58:46;;;;;;;10.23;5.20;;;;;;;12.75;100.00;100469.53;2532426;23;20475;-68
2023/04/12 00:59:47;;;;;;;5.43;4.70;;;;;;;12.81;100.00;100462.94;2531560;23;20154;-68
2023/04/12 01:00:51;;;;;;;6.53;4.83;;;;;;;12.85;100.00;100465.56;2531592;23;20158;-68
2023/04/12 01:01:54;;;;;;;5.53;4.60;;;;;;;12.25;100.00;100370.41;2532358;23;20604;-68
2023/04/12 01:02:55;;;;;;;6.33;4.73;;;;;;;12.85;100.00;100466.38;2532599;23;20374;-68
2023/04/12 01:04:00;;;;;;;5.63;4.90;;;;;;;12.82;100.00;100460.94;2532155;23;20383;-68
2023/04/12 01:05:01;;;;;;;6.53;4.70;;;;;;;12.80;100.00;100463.41;2533017;23;20402;-68
2023/04/12 01:06:19;;;;;;;8.23;4.87;;;;;;;12.78;100.00;100458.28;2532290;23;20378;-68
2023/04/12 01:07:59;;;;;;;6.27;4.40;;;;;;;12.80;100.00;100461.38;2532890;23;20358;-68
2023/04/12 01:09:26;;;;;;;7.37;4.60;;;;;;;12.61;100.00;100470.03;2532278;23;20397;-68
2023/04/12 01:10:40;;;;;;;6.40;4.97;;;;;;;12.47;100.00;100442.69;2531720;23;20385;-69
2023/04/12 01:11:50;;;;;;;7.53;5.00;;;;;;;12.62;100.00;100466.00;2532352;23;20808;-69
2023/04/12 01:13:04;;;;;;;5.97;4.77;;;;;;;12.58;100.00;100460.56;2532824;23;20355;-68
2023/04/12 01:14:05;;;;;;;6.23;4.50;;;;;;;12.54;100.00;100462.69;2532444;23;20357;-68
2023/04/12 01:15:11;;;;;;;6.67;4.50;;;;;;;12.53;100.00;100463.94;2532655;23;20386;-68
2023/04/12 01:16:50;;;;;;;6.03;4.70;;;;;;;12.48;100.00;100460.94;2532328;23;20674;-68
2023/04/12 01:18:01;;;;;;;6.43;4.80;;;;;;;12.50;100.00;100461.28;2532291;23;20374;-68
2023/04/12 01:19:11;;;;;;;6.40;4.67;;;;;;;12.51;100.00;100468.38;2532270;23;20705;-68
2023/04/12 01:20:22;;;;;;;6.33;4.77;;;;;;;12.54;100.00;100459.91;2532368;23;20367;-68
2023/04/12 01:21:41;;;;;;;6.20;5.00;;;;;;;12.58;100.00;100462.56;2531577;23;20395;-68
2023/04/12 01:23:05;;;;;;;5.17;4.67;;;;;;;12.64;100.00;100469.88;2532709;23;21009;-68
2023/04/12 01:24:21;;;;;;;5.93;4.80;;;;;;;12.68;100.00;100466.97;2532159;23;20747;-68
2023/04/12 01:25:40;;;;;;;8.43;4.63;;;;;;;12.71;100.00;100452.94;2519709;23;20389;-68
2023/04/12 01:26:43;;;;;;;6.00;4.87;;;;;;;12.71;100.00;100449.41;2523715;23;20449;-68
2023/04/12 01:27:53;;;;;;;5.47;4.70;;;;;;;12.73;100.00;100455.28;2532317;23;20382;-68
2023/04/12 01:28:55;;;;;;;5.30;4.70;;;;;;;12.82;100.00;100452.59;2532389;23;20394;-68
2023/04/12 01:29:57;;;;;;;8.27;4.80;;;;;;;12.84;100.00;100452.91;2531523;23;20778;-68
2023/04/12 01:31:00;;;;;;;5.20;4.70;;;;;;;12.77;100.00;100453.16;2531513;23;20465;-68
2023/04/12 01:32:02;;;;;;;5.27;4.77;;;;;;;12.83;100.00;100451.34;2532283;23;20453;-68
2023/04/12 01:33:06;;;;;;;6.10;4.73;;;;;;;11.84;100.00;100301.19;2532731;23;20895;-68
2023/04/12 01:34:10;;;;;;;8.77;4.60;;;;;;;12.22;100.00;100367.75;2532185;23;20474;-68
2023/04/12 01:35:12;;;;;;;5.30;4.70;;;;;;;12.81;100.00;100453.81;2532636;23;20382;-68
2023/04/12 01:36:17;;;;;;;5.10;4.60;;;;;;;12.83;100.00;100449.38;2532320;23;20441;-68
2023/04/12 01:37:18;;;;;;;6.30;5.00;;;;;;;12.82;100.00;100442.22;2532604;23;20397;-68
2023/04/12 01:38:20;;;;;;;5.07;4.50;;;;;;;12.86;100.00;100447.69;2532354;23;20453;-68
2023/04/12 01:39:21;;;;;;;5.43;4.80;;;;;;;12.85;100.00;100426.63;2531983;23;20402;-68
2023/04/12 01:40:22;;;;;;;6.27;4.80;;;;;;;12.95;100.00;100440.19;2532575;23;20882;-68
2023/04/12 01:41:22;;;;;;;5.03;4.33;;;;;;;12.64;100.00;100408.72;2531424;23;20157;-68
2023/04/12 01:42:23;;;;;;;5.13;4.60;;;;;;;12.94;100.00;100446.19;2532649;23;20406;-69
2023/04/12 01:43:23;;;;;;;5.93;4.53;;;;;;;12.66;100.00;100403.47;2519294;23;20183;-68
2023/04/12 01:44:24;;;;;;;5.83;4.67;;;;;;;12.75;100.00;100409.13;2519655;23;20692;-68
2023/04/12 01:45:24;;;;;;;11.03;5.30;;;;;;;12.85;100.00;100433.00;2532361;23;20156;-68
2023/04/12 01:46:25;;;;;;;5.27;4.60;;;;;;;12.97;100.00;100446.09;2532290;23;20502;-68
2023/04/12 01:47:26;;;;;;;6.50;5.30;;;;;;;12.97;100.00;100437.72;2532648;23;20162;-68
2023/04/12 01:48:26;;;;;;;6.97;5.00;;;;;;;12.97;100.00;100448.88;2532403;23;20199;-68
2023/04/12 01:49:35;;;;;;;6.47;5.00;;;;;;;12.89;100.00;100438.41;2531566;23;20927;-68
2023/04/12 01:50:54;;;;;;;7.83;4.67;;;;;;;12.96;100.00;100444.53;2532453;23;20146;-68
2023/04/12 01:52:10;;;;;;;8.67;4.70;;;;;;;12.99;100.00;100440.84;2531495;23;20366;-68
2023/04/12 01:53:25;;;;;;;6.77;5.10;;;;;;;13.04;100.00;100448.63;2532665;23;20367;-68
2023/04/12 01:54:29;;;;;;;6.83;5.20;;;;;;;13.00;100.00;100436.84;2532669;23;20362;-68
2023/04/12 01:55:31;;;;;;;7.27;4.97;;;;;;;12.92;100.00;100452.19;2532528;23;20416;-68
2023/04/12 01:56:35;;;;;;;6.23;4.90;;;;;;;12.24;100.00;100343.84;2532488;23;20887;-68
2023/04/12 01:57:37;;;;;;;5.77;4.97;;;;;;;12.25;100.00;100342.63;2532235;23;20378;-68
2023/04/12 01:58:39;;;;;;;6.30;4.87;;;;;;;12.96;100.00;100443.78;2532144;23;20876;-68
2023/04/12 01:59:44;;;;;;;6.00;5.30;;;;;;;12.91;100.00;100445.09;2531630;23;20867;-68
2023/04/12 02:00:45;;;;;;;5.10;4.37;;;;;;;12.17;100.00;100324.66;2531961;23;20461;-68
2023/04/12 02:01:47;;;;;;;6.50;5.13;;;;;;;11.94;100.00;100294.50;2519210;23;20397;-68
2023/04/12 02:02:47;;;;;;;6.47;4.97;;;;;;;12.88;100.00;100439.66;2519389;23;20414;-68
2023/04/12 02:03:49;;;;;;;6.53;5.00;;;;;;;12.92;100.00;100441.06;2532058;23;20398;-68
2023/04/12 02:04:51;;;;;;;7.13;5.17;;;;;;;12.94;100.00;100444.19;2532632;23;20543;-68
2023/04/12 02:05:52;;;;;;;7.07;5.27;;;;;;;12.47;100.00;100381.56;2532395;23;20386;-68
2023/04/12 02:06:53;;;;;;;6.30;4.97;;;;;;;12.91;100.00;100447.09;2532677;23;20784;-68
2023/04/12 02:07:53;;;;;;;5.63;4.80;;;;;;;12.65;100.00;100432.53;2532004;23;20381;-68
2023/04/12 02:09:02;;;;;;;7.80;5.47;;;;;;;12.63;100.00;100445.31;2532433;23;20386;-68
2023/04/12 02:10:03;;;;;;;7.17;5.43;;;;;;;12.56;100.00;100454.66;2531853;23;20201;-68
2023/04/12 02:11:10;;;;;;;6.30;5.37;;;;;;;12.55;100.00;100452.38;2532120;23;20374;-68
2023/04/12 02:12:12;;;;;;;5.90;5.07;;;;;;;12.58;100.00;100459.78;2532075;23;20161;-68
2023/04/12 02:13:12;;;;;;;6.67;5.17;;;;;;;12.32;100.00;100425.75;2532117;23;20385;-68
2023/04/12 02:14:12;;;;;;;6.43;5.40;;;;;;;12.55;100.00;100460.69;2532095;23;20469;-68
2023/04/12 02:15:13;;;;;;;10.40;5.27;;;;;;;12.55;100.00;100457.94;2532518;23;20181;-68
2023/04/12 02:16:15;;;;;;;7.53;5.80;;;;;;;12.53;100.00;100465.91;2532438;23;20550;-68
2023/04/12 02:17:16;;;;;;;7.20;5.13;;;;;;;12.52;100.00;100461.59;2532732;23;20155;-68
2023/04/12 02:18:17;;;;;;;6.47;5.27;;;;;;;12.53;100.00;100465.91;2532090;23;20377;-68
2023/04/12 02:19:18;;;;;;;7.70;5.27;;;;;;;12.46;100.00;100453.03;2531757;23;20161;-68
2023/04/12 02:20:23;;;;;;;6.33;5.20;;;;;;;11.91;100.00;100373.19;2532601;23;20322;-68
2023/04/12 02:21:25;;;;;;;6.23;5.20;;;;;;;12.44;100.00;100463.03;2531781;23;20389;-68
2023/04/12 02:22:25;;;;;;;8.27;5.47;;;;;;;11.89;100.00;100408.91;2532181;23;20871;-68
2023/04/12 02:23:26;;;;;;;6.60;5.60;;;;;;;12.23;100.00;100467.31;2531556;23;20445;-68
2023/04/12 02:24:27;;;;;;;6.47;5.47;;;;;;;12.30;100.00;100469.84;2532541;23;20181;-68
2023/04/12 02:25:27;;;;;;;5.97;5.37;;;;;;;12.35;100.00;100465.75;2532175;23;20156;-68
2023/04/12 02:26:27;;;;;;;6.70;5.20;;;;;;;12.39;100.00;100466.38;2532518;23;20151;-68
2023/04/12 02:27:28;;;;;;;7.60;5.40;;;;;;;12.41;100.00;100469.50;2532359;23;20202;-68
2023/04/12 02:28:29;;;;;;;6.60;5.83;;;;;;;12.31;100.00;100454.75;2532057;23;20185;-68
2023/04/12 02:29:30;;;;;;;8.07;5.77;;;;;;;12.36;100.00;100472.88;2518650;23;20194;-68
2023/04/12 02:30:30;;;;;;;7.37;5.63;;;;;;;12.39;100.00;100463.59;2519697;23;20223;-68
2023/04/12 02:31:31;;;;;;;6.20;5.37;;;;;;;12.44;100.00;100468.59;2531792;23;20390;-68
2023/04/12 02:32:32;;;;;;;6.27;5.20;;;;;;;12.42;100.00;100465.50;2533121;23;20149;-68
2023/04/12 02:33:33;;;;;;;7.43;5.57;;;;;;;12.47;100.00;100464.94;2532277;23;20382;-68
2023/04/12 02:34:35;;;;;;;6.50;5.40;;;;;;;12.40;100.00;100468.72;2533231;23;20564;-68
2023/04/12 02:35:36;;;;;;;7.60;5.63;;;;;;;12.31;100.00;100460.31;2532780;23;20433;-68
2023/04/12 02:36:36;;;;;;;6.67;5.97;;;;;;;12.24;100.00;100463.31;2533151;23;20441;-68
2023/04/12 02:37:38;;;;;;;6.57;5.70;;;;;;;11.78;100.00;100400.16;2533035;23;20476;-68
2023/04/12 02:38:38;;;;;;;6.23;5.63;;;;;;;12.27;100.00;100462.44;2533062;23;20611;-68
2023/04/12 02:39:40;;;;;;;8.20;5.80;;;;;;;12.25;100.00;100456.53;2532268;23;20728;-68
2023/04/12 02:40:41;;;;;;;8.90;5.70;;;;;;;12.28;100.00;100475.09;2532873;23;20170;-68
2023/04/12 02:41:41;;;;;;;8.30;6.17;;;;;;;12.28;100.00;100454.84;2532835;23;20393;-68
2023/04/12 02:42:43;;;;;;;9.77;6.20;;;;;;;11.44;100.00;100332.66;2533146;23;20200;-68
2023/04/12 02:43:43;;;;;;;7.40;5.97;;;;;;;12.28;100.00;100461.19;2532156;23;20154;-68
2023/04/12 02:44:46;;;;;;;9.10;6.30;;;;;;;11.15;100.00;100285.63;2533258;23;20410;-68
2023/04/12 02:45:48;;;;;;;7.80;6.23;;;;;;;12.15;100.00;100456.91;2532780;23;20230;-68
2023/04/12 02:46:48;;;;;;;7.20;6.40;;;;;;;12.14;100.00;100444.25;2533343;23;20887;-68
2023/04/12 02:47:48;;;;;;;8.33;6.27;;;;;;;12.10;100.00;100460.22;2532818;23;20472;-69
2023/04/12 02:48:50;;;;;;;7.93;5.90;;;;;;;12.23;100.00;100458.19;2533058;23;20260;-68
2023/04/12 02:49:50;;;;;;;8.50;6.07;;;;;;;12.09;100.00;100455.91;2519095;23;20435;-69
2023/04/12 02:50:50;;;;;;;7.17;6.40;;;;;;;12.12;100.00;100450.22;2519868;23;20477;-69
2023/04/12 02:51:51;;;;;;;8.03;6.00;;;;;;;12.17;100.00;100465.53;2532825;23;20168;-68
2023/04/12 02:52:52;;;;;;;7.20;6.20;;;;;;;12.14;100.00;100461.66;2533448;23;20151;-69
2023/04/12 02:53:53;;;;;;;7.20;6.07;;;;;;;11.37;100.00;100352.31;2531855;23;20214;-69
2023/04/12 02:54:53;;;;;;;9.50;5.90;;;;;;;12.02;100.00;100456.13;2533214;23;20230;-68
2023/04/12 02:55:53;;;;;;;7.97;6.00;;;;;;;12.05;100.00;100455.25;2532804;23;20597;-69
2023/04/12 02:56:54;;;;;;;8.70;5.83;;;;;;;12.06;100.00;100470.69;2532961;23;20595;-68
2023/04/12 02:57:56;;;;;;;8.67;5.97;;;;;;;11.93;100.00;100454.03;2532529;23;20165;-69
2023/04/12 02:58:56;;;;;;;6.60;5.50;;;;;;;12.01;100.00;100476.78;2533046;23;20135;-69
2023/04/12 02:59:56;;;;;;;6.73;5.70;;;;;;;11.58;100.00;100399.59;2532069;23;20381;-69
2023/04/12 03:00:58;;;;;;;8.70;5.93;;;;;;;12.04;100.00;100473.91;2532318;23;20585;-69
2023/04/12 03:01:59;;;;;;;6.73;5.83;;;;;;;12.07;100.00;100475.78;2532740;23;20188;-68
2023/04/12 03:03:01;;;;;;;7.00;5.90;;;;;;;11.90;100.00;100441.03;2533200;23;20886;-68
2023/04/12 03:04:02;;;;;;;6.80;5.30;;;;;;;12.08;100.00;100482.09;2518997;23;20194;-69
2023/04/12 03:05:03;;;;;;;7.37;5.17;;;;;;;12.06;100.00;100468.69;2520105;23;20385;-69
2023/04/12 03:06:05;;;;;;;7.47;5.37;;;;;;;12.10;100.00;100476.91;2532740;23;20237;-69
2023/04/12 03:07:05;;;;;;;7.23;5.40;;;;;;;12.09;100.00;100484.44;2533205;23;20381;-68
2023/04/12 03:08:06;;;;;;;12.33;4.90;;;;;;;12.05;100.00;100485.78;2532700;23;20998;-69
2023/04/12 03:09:07;;;;;;;6.67;4.87;;;;;;;12.09;100.00;100484.44;2532378;23;20154;-69
2023/04/12 03:10:08;;;;;;;6.80;5.10;;;;;;;11.05;100.00;100331.09;2532736;23;20174;-69
2023/04/12 03:11:08;;;;;;;6.13;4.80;;;;;;;12.04;100.00;100476.66;2532614;23;20165;-68
2023/04/12 03:12:09;;;;;;;8.30;4.90;;;;;;;12.03;100.00;100471.56;2532763;23;20382;-68
2023/04/12 03:13:10;;;;;;;7.83;4.90;;;;;;;12.07;100.00;100477.78;2533134;23;20289;-69
2023/04/12 03:14:10;;;;;;;6.57;5.20;;;;;;;12.08;100.00;100488.44;2532590;23;20565;-69
2023/04/12 03:15:10;;;;;;;8.87;4.70;;;;;;;12.08;100.00;100474.56;2532519;23;20597;-68
2023/04/12 03:16:22;;;;;;;5.90;4.60;;;;;;;12.15;100.00;100479.13;2532769;23;20549;-68
2023/04/12 03:17:23;;;;;;;7.97;4.80;;;;;;;12.17;100.00;100476.66;2533058;23;20259;-68
2023/04/12 03:18:24;;;;;;;5.37;4.70;;;;;;;12.12;100.00;100480.78;2532661;23;20490;-69
2023/04/12 03:19:24;;;;;;;5.90;4.97;;;;;;;12.12;100.00;100485.56;2532405;23;20588;-68
2023/04/12 03:20:26;;;;;;;6.40;4.63;;;;;;;12.11;100.00;100484.78;2533077;23;20213;-69
2023/04/12 03:21:27;;;;;;;5.23;4.47;;;;;;;12.17;100.00;100485.78;2532492;23;20153;-68
2023/04/12 03:22:28;;;;;;;6.03;4.50;;;;;;;12.17;100.00;100485.78;2532840;23;20473;-69
2023/04/12 03:23:28;;;;;;;6.53;4.40;;;;;;;12.18;100.00;100490.13;2532699;23;20155;-68
2023/04/12 03:24:33;;;;;;;5.27;4.33;;;;;;;11.39;100.00;100364.53;2519854;23;20159;-68
2023/04/12 03:25:36;;;;;;;8.33;4.57;;;;;;;11.80;100.00;100424.72;2520252;23;20601;-69
2023/04/12 03:26:36;;;;;;;8.20;4.47;;;;;;;11.66;100.00;100391.84;2532959;23;20378;-68
2023/04/12 03:27:36;;;;;;;6.23;4.10;;;;;;;12.28;100.00;100480.66;2532863;23;20477;-68
2023/04/12 03:28:37;;;;;;;5.10;4.07;;;;;;;12.32;100.00;100486.09;2532811;23;20178;-68
2023/04/12 03:29:37;;;;;;;5.70;3.80;;;;;;;12.32;100.00;100489.66;2531931;23;20205;-68
2023/04/12 03:30:38;;;;;;;4.67;4.00;;;;;;;12.34;100.00;100487.19;2532722;23;20160;-68
2023/04/12 03:31:38;;;;;;;6.23;3.70;;;;;;;12.36;100.00;100492.31;2532513;23;20158;-68
2023/04/12 03:32:43;;;;;;;5.27;4.00;;;;;;;12.40;100.00;100496.50;2532912;23;20553;-68
2023/04/12 03:33:43;;;;;;;4.80;3.93;;;;;;;12.35;100.00;100485.97;2532523;23;20257;-69
2023/04/12 03:34:44;;;;;;;4.63;3.67;;;;;;;12.33;100.00;100490.41;2532970;23;20388;-68
2023/04/12 03:35:45;;;;;;;5.97;3.43;;;;;;;12.29;100.00;100493.31;2531750;23;20178;-68
2023/04/12 03:36:45;;;;;;;5.00;3.90;;;;;;;12.31;100.00;100490.88;2533071;23;20402;-68
2023/04/12 03:37:46;;;;;;;6.10;3.87;;;;;;;12.34;100.00;100500.31;2532843;23;20155;-69
2023/04/12 03:38:46;;;;;;;4.83;4.13;;;;;;;12.34;100.00;100495.53;2532897;23;20180;-68
2023/04/12 03:39:47;;;;;;;5.77;3.70;;;;;;;12.36;100.00;100493.09;2531978;23;20221;-68
2023/04/12 03:40:47;;;;;;;4.57;3.87;;;;;;;12.36;100.00;100495.09;2532321;23;20257;-69
2023/04/12 03:41:48;;;;;;;4.80;4.10;;;;;;;12.38;100.00;100498.97;2532711;23;20217;-68
2023/04/12 03:42:48;;;;;;;5.37;4.07;;;;;;;12.41;100.00;100511.19;2533057;23;20154;-68
2023/04/12 03:43:49;;;;;;;6.43;3.37;;;;;;;12.43;100.00;100503.97;2532474;23;20150;-68
2023/04/12 03:44:51;;;;;;;4.63;3.70;;;;;;;12.41;100.00;100500.84;2520088;23;20211;-69
2023/04/12 03:45:51;;;;;;;4.83;3.77;;;;;;;12.41;100.00;100506.41;2519427;23;20667;-68
2023/04/12 03:46:52;;;;;;;6.27;3.73;;;;;;;12.44;100.00;100504.72;2532771;23;20421;-68
2023/04/12 03:47:53;;;;;;;4.87;3.90;;;;;;;12.44;100.00;100511.06;2532495;23;20600;-68
2023/04/12 03:48:53;;;;;;;4.60;3.70;;;;;;;12.51;100.00;100507.28;2532920;23;20157;-68
2023/04/12 03:49:54;;;;;;;4.70;3.47;;;;;;;12.51;100.00;100504.50;2531842;23;20159;-68
2023/04/12 03:50:58;;;;;;;4.10;3.43;;;;;;;12.47;100.00;100498.28;2532560;23;20224;-68
2023/04/12 03:51:58;;;;;;;4.83;3.40;;;;;;;12.45;100.00;100500.75;2532610;23;20478;-68
2023/04/12 03:52:59;;;;;;;5.57;3.50;;;;;;;12.51;100.00;100502.50;2533040;23;20482;-68
2023/04/12 03:54:01;;;;;;;4.50;3.20;;;;;;;12.48;100.00;100506.19;2532360;23;20165;-68
2023/04/12 03:55:02;;;;;;;4.30;3.47;;;;;;;12.52;100.00;100506.84;2533186;23;20547;-68
2023/04/12 03:56:03;;;;;;;6.50;3.33;;;;;;;12.50;100.00;100502.97;2531925;23;20412;-68
2023/04/12 03:57:03;;;;;;;4.47;3.40;;;;;;;12.49;100.00;100509.72;2532819;23;20610;-68
2023/04/12 03:58:04;;;;;;;4.13;3.07;;;;;;;12.52;100.00;100503.28;2532282;23;20214;-68
2023/04/12 03:59:06;;;;;;;3.93;3.00;;;;;;;12.43;100.00;100489.28;2531987;23;20161;-68
2023/04/12 04:00:07;;;;;;;8.07;3.60;;;;;;;12.49;100.00;100507.72;2532572;23;20153;-68
2023/04/12 04:01:08;;;;;;;4.80;3.20;;;;;;;12.55;100.00;100503.16;2532191;23;20386;-68
2023/04/12 04:02:09;;;;;;;4.40;3.00;;;;;;;12.53;100.00;100500.06;2532575;23;20153;-68
2023/04/12 04:03:11;;;;;;;6.67;3.27;;;;;;;12.50;100.00;100506.50;2532888;23;20421;-68
2023/04/12 04:04:11;;;;;;;6.00;3.40;;;;;;;12.51;100.00;100490.63;2532829;23;20474;-69
2023/04/12 04:05:12;;;;;;;4.77;3.20;;;;;;;12.50;100.00;100509.28;2532816;23;20400;-68
2023/04/12 04:06:12;;;;;;;4.43;2.80;;;;;;;12.52;100.00;100501.28;2532530;23;20233;-68
2023/04/12 04:07:13;;;;;;;3.97;2.70;;;;;;;12.52;100.00;100504.06;2532217;23;20609;-68
2023/04/12 04:08:13;;;;;;;4.20;3.60;;;;;;;12.47;100.00;100496.31;2532429;23;20190;-68
2023/04/12 04:09:14;;;;;;;4.00;2.80;;;;;;;12.51;100.00;100498.94;2532066;23;20196;-68
2023/04/12 04:10:15;;;;;;;4.20;2.87;;;;;;;12.46;100.00;100485.63;2532404;23;20157;-68
2023/04/12 04:11:15;;;;;;;5.20;2.93;;;;;;;12.48;100.00;100505.41;2519434;23;20155;-68
2023/04/12 04:12:16;;;;;;;4.07;2.90;;;;;;;12.52;100.00;100498.50;2519893;23;20595;-68
2023/04/12 04:13:16;;;;;;;3.90;2.90;;;;;;;12.49;100.00;100504.16;2532710;23;20624;-69
2023/04/12 04:14:16;;;;;;;4.47;2.47;;;;;;;12.52;100.00;100497.72;2532578;23;20154;-69
2023/04/12 04:15:17;;;;;;;4.97;2.70;;;;;;;12.47;100.00;100503.84;2532667;23;20329;-69
2023/04/12 04:16:18;;;;;;;5.30;2.60;;;;;;;12.45;100.00;100504.28;2532623;23;20151;-68
2023/04/12 04:17:18;;;;;;;5.87;2.60;;;;;;;12.38;100.00;100514.84;2532091;23;20165;-68
2023/04/12 04:18:19;;;;;;;3.27;2.17;;;;;;;12.37;100.00;100502.97;2532625;23;20198;-68
2023/04/12 04:19:20;;;;;;;3.50;2.20;;;;;;;12.40;100.00;100502.06;2532186;23;20613;-68
2023/04/12 04:20:21;;;;;;;4.57;2.40;;;;;;;12.36;100.00;100509.78;2532838;23;20164;-68
2023/04/12 04:21:21;;;;;;;4.17;2.40;;;;;;;12.31;100.00;100504.00;2532410;23;20155;-68
2023/04/12 04:22:22;;;;;;;4.77;2.37;;;;;;;12.32;100.00;100508.31;2532352;23;20161;-69
2023/04/12 04:23:22;;;;;;;3.23;2.23;;;;;;;12.14;100.00;100483.13;2532657;23;20150;-68
2023/04/12 04:24:23;;;;;;;3.67;2.63;;;;;;;12.37;100.00;100510.53;2532640;23;20284;-68
2023/04/12 04:25:28;;;;;;;3.83;2.30;;;;;;;12.29;100.00;100501.66;2532656;23;20154;-68
2023/04/12 04:26:32;;;;;;;3.63;2.47;;;;;;;12.31;100.00;100515.09;2532786;23;20381;-69
2023/04/12 04:27:33;;;;;;;3.70;2.70;;;;;;;12.34;100.00;100514.22;2531782;23;20965;-68
2023/04/12 04:28:33;;;;;;;3.37;2.50;;;;;;;12.36;100.00;100515.34;2532422;23;20520;-68
2023/04/12 04:29:35;;;;;;;4.17;2.57;;;;;;;12.37;100.00;100505.75;2531827;23;20376;-68
2023/04/12 04:30:37;;;;;;;3.80;2.40;;;;;;;12.41;100.00;100520.28;2532579;23;20170;-68
2023/04/12 04:31:38;;;;;;;4.30;2.40;;;;;;;12.40;100.00;100512.44;2532311;23;20516;-68
2023/04/12 04:32:39;;;;;;;4.00;2.40;;;;;;;12.41;100.00;100525.84;2532829;23;20386;-68
2023/04/12 04:33:40;;;;;;;3.80;2.30;;;;;;;12.30;100.00;100510.78;2532397;23;20164;-68
2023/04/12 04:34:41;;;;;;;4.33;2.13;;;;;;;12.45;100.00;100525.75;2532730;23;20374;-68
2023/04/12 04:35:42;;;;;;;3.77;2.40;;;;;;;12.44;100.00;100521.41;2532508;23;20397;-68
2023/04/12 04:36:42;;;;;;;2.87;1.93;;;;;;;12.42;100.00;100526.66;2532669;23;20155;-68
2023/04/12 04:37:43;;;;;;;3.03;2.10;;;;;;;11.69;100.00;100419.47;2531637;23;20463;-69
2023/04/12 04:38:44;;;;;;;2.77;1.83;;;;;;;12.40;100.00;100529.09;2532698;23;20166;-69
2023/04/12 04:39:45;;;;;;;3.93;2.00;;;;;;;11.27;100.00;100350.66;2532015;23;20178;-69
2023/04/12 04:40:50;;;;;;;4.27;2.03;;;;;;;12.30;100.00;100530.97;2519199;23;20162;-69
2023/04/12 04:41:53;;;;;;;4.10;2.30;;;;;;;12.29;100.00;100540.56;2520369;23;20161;-68
2023/04/12 04:42:53;;;;;;;4.03;2.23;;;;;;;12.21;100.00;100532.88;2532820;23;20382;-69
2023/04/12 04:43:54;;;;;;;3.63;2.10;;;;;;;12.25;100.00;100539.88;2532053;23;20379;-68
2023/04/12 04:45:02;;;;;;;5.40;2.30;;;;;;;12.18;100.00;100528.22;2532792;23;20154;-68
2023/04/12 04:46:02;;;;;;;4.60;2.27;;;;;;;12.21;100.00;100527.34;2532326;23;20158;-69
2023/04/12 04:47:03;;;;;;;5.87;3.00;;;;;;;11.45;100.00;100446.00;2532805;23;20386;-69